sensor_id;sensor_type;location;lat;lon;timestamp;P1;durP1;ratioP1;P2;durP2;ratioP2
5491;SDS011;2768;53.540;10.224;2023-01-26T00:02:08;47.37;;;23.00;;
5491;SDS011;2768;53.540;10.224;2023-01-26T00:08:02;41.17;;;21.47;;
5491;SDS011;2768;53.540;10.224;2023-01-26T00:13:57;45.43;;;23.10;;
5491;SDS011;2768;53.540;10.224;2023-01-26T00:19:52;45.73;;;22.50;;
5491;SDS011;2768;53.540;10.224;2023-01-26T00:25:47;39.83;;;20.23;;
5491;SDS011;2768;53.540;10.224;2023-01-26T00:31:41;38.60;;;20.43;;
5491;SDS011;2768;53.540;10.224;2023-01-26T00:37:35;39.83;;;21.03;;
5491;SDS011;2768;53.540;10.224;2023-01-26T00:43:28;40.30;;;19.73;;
5491;SDS011;2768;53.540;10.224;2023-01-26T00:49:23;41.30;;;19.53;;
5491;SDS011;2768;53.540;10.224;2023-01-26T00:55:17;44.63;;;21.60;;
5491;SDS011;2768;53.540;10.224;2023-01-26T01:01:10;42.13;;;20.63;;
5491;SDS011;2768;53.540;10.224;2023-01-26T01:07:07;40.17;;;20.80;;
5491;SDS011;2768;53.540;10.224;2023-01-26T01:13:00;40.63;;;21.63;;
5491;SDS011;2768;53.540;10.224;2023-01-26T01:18:54;43.47;;;21.63;;
5491;SDS011;2768;53.540;10.224;2023-01-26T01:24:49;40.53;;;20.70;;
5491;SDS011;2768;53.540;10.224;2023-01-26T01:30:42;42.67;;;20.63;;
5491;SDS011;2768;53.540;10.224;2023-01-26T01:36:36;37.57;;;19.57;;
5491;SDS011;2768;53.540;10.224;2023-01-26T01:42:31;46.27;;;22.60;;
5491;SDS011;2768;53.540;10.224;2023-01-26T01:48:26;43.30;;;21.10;;
5491;SDS011;2768;53.540;10.224;2023-01-26T01:54:24;44.83;;;21.70;;
5491;SDS011;2768;53.540;10.224;2023-01-26T02:00:23;46.23;;;23.17;;
5491;SDS011;2768;53.540;10.224;2023-01-26T02:06:17;43.70;;;22.97;;
5491;SDS011;2768;53.540;10.224;2023-01-26T02:12:13;41.17;;;20.80;;
5491;SDS011;2768;53.540;10.224;2023-01-26T02:18:13;43.30;;;21.77;;
5491;SDS011;2768;53.540;10.224;2023-01-26T02:24:09;43.73;;;20.60;;
5491;SDS011;2768;53.540;10.224;2023-01-26T02:30:10;46.20;;;22.90;;
5491;SDS011;2768;53.540;10.224;2023-01-26T02:36:07;44.60;;;23.23;;
5491;SDS011;2768;53.540;10.224;2023-01-26T02:42:08;48.57;;;20.90;;
5491;SDS011;2768;53.540;10.224;2023-01-26T02:48:21;41.00;;;22.17;;
5491;SDS011;2768;53.540;10.224;2023-01-26T02:54:28;41.20;;;20.93;;
5491;SDS011;2768;53.540;10.224;2023-01-26T03:00:40;41.77;;;22.03;;
5491;SDS011;2768;53.540;10.224;2023-01-26T03:06:36;40.60;;;19.13;;
5491;SDS011;2768;53.540;10.224;2023-01-26T03:12:29;42.20;;;20.70;;
5491;SDS011;2768;53.540;10.224;2023-01-26T03:18:23;39.53;;;20.20;;
5491;SDS011;2768;53.540;10.224;2023-01-26T03:24:36;40.40;;;20.47;;
5491;SDS011;2768;53.540;10.224;2023-01-26T03:30:47;33.83;;;17.00;;
5491;SDS011;2768;53.540;10.224;2023-01-26T03:36:41;38.53;;;19.10;;
5491;SDS011;2768;53.540;10.224;2023-01-26T03:42:39;38.30;;;19.87;;
5491;SDS011;2768;53.540;10.224;2023-01-26T03:48:52;45.70;;;22.43;;
5491;SDS011;2768;53.540;10.224;2023-01-26T03:55:03;41.93;;;20.23;;
5491;SDS011;2768;53.540;10.224;2023-01-26T04:01:17;43.97;;;21.20;;
5491;SDS011;2768;53.540;10.224;2023-01-26T04:07:21;38.00;;;19.03;;
5491;SDS011;2768;53.540;10.224;2023-01-26T04:13:33;41.70;;;20.20;;
5491;SDS011;2768;53.540;10.224;2023-01-26T04:19:54;45.40;;;22.00;;
5491;SDS011;2768;53.540;10.224;2023-01-26T04:26:06;38.87;;;19.53;;
5491;SDS011;2768;53.540;10.224;2023-01-26T04:32:00;41.20;;;21.03;;
5491;SDS011;2768;53.540;10.224;2023-01-26T04:37:57;47.10;;;22.97;;
5491;SDS011;2768;53.540;10.224;2023-01-26T04:43:51;44.00;;;22.63;;
5491;SDS011;2768;53.540;10.224;2023-01-26T04:49:46;41.13;;;19.93;;
5491;SDS011;2768;53.540;10.224;2023-01-26T04:55:48;42.00;;;20.67;;
5491;SDS011;2768;53.540;10.224;2023-01-26T05:01:41;41.73;;;19.57;;
5491;SDS011;2768;53.540;10.224;2023-01-26T05:07:35;38.67;;;19.50;;
5491;SDS011;2768;53.540;10.224;2023-01-26T05:13:30;44.80;;;20.40;;
5491;SDS011;2768;53.540;10.224;2023-01-26T05:19:49;40.60;;;19.50;;
5491;SDS011;2768;53.540;10.224;2023-01-26T05:25:55;44.73;;;20.27;;
5491;SDS011;2768;53.540;10.224;2023-01-26T05:31:50;36.80;;;18.10;;
5491;SDS011;2768;53.540;10.224;2023-01-26T05:37:44;39.93;;;19.10;;
5491;SDS011;2768;53.540;10.224;2023-01-26T05:43:38;35.00;;;17.57;;
5491;SDS011;2768;53.540;10.224;2023-01-26T05:49:36;39.30;;;18.87;;
5491;SDS011;2768;53.540;10.224;2023-01-26T05:55:39;35.23;;;17.30;;
5491;SDS011;2768;53.540;10.224;2023-01-26T06:01:33;37.13;;;18.80;;
5491;SDS011;2768;53.540;10.224;2023-01-26T06:07:31;42.30;;;20.00;;
5491;SDS011;2768;53.540;10.224;2023-01-26T06:13:38;40.73;;;20.13;;
5491;SDS011;2768;53.540;10.224;2023-01-26T06:19:42;40.47;;;19.77;;
5491;SDS011;2768;53.540;10.224;2023-01-26T06:25:37;40.27;;;19.63;;
5491;SDS011;2768;53.540;10.224;2023-01-26T06:31:31;41.40;;;19.97;;
5491;SDS011;2768;53.540;10.224;2023-01-26T06:37:29;41.87;;;20.43;;
5491;SDS011;2768;53.540;10.224;2023-01-26T06:43:24;39.40;;;19.87;;
5491;SDS011;2768;53.540;10.224;2023-01-26T06:49:17;45.47;;;21.13;;
5491;SDS011;2768;53.540;10.224;2023-01-26T06:55:14;45.63;;;21.13;;
5491;SDS011;2768;53.540;10.224;2023-01-26T07:01:40;36.57;;;17.17;;
5491;SDS011;2768;53.540;10.224;2023-01-26T07:07:35;37.13;;;17.00;;
5491;SDS011;2768;53.540;10.224;2023-01-26T07:13:28;33.90;;;17.50;;
5491;SDS011;2768;53.540;10.224;2023-01-26T07:19:23;36.57;;;17.37;;
5491;SDS011;2768;53.540;10.224;2023-01-26T07:25:17;31.20;;;16.13;;
5491;SDS011;2768;53.540;10.224;2023-01-26T07:31:11;34.70;;;16.87;;
5491;SDS011;2768;53.540;10.224;2023-01-26T07:37:06;26.40;;;14.60;;
5491;SDS011;2768;53.540;10.224;2023-01-26T07:43:00;23.10;;;12.00;;
5491;SDS011;2768;53.540;10.224;2023-01-26T07:49:13;27.30;;;13.27;;
5491;SDS011;2768;53.540;10.224;2023-01-26T07:55:07;28.67;;;13.97;;
5491;SDS011;2768;53.540;10.224;2023-01-26T08:01:06;21.43;;;11.87;;
5491;SDS011;2768;53.540;10.224;2023-01-26T08:07:00;27.37;;;13.60;;
5491;SDS011;2768;53.540;10.224;2023-01-26T08:12:55;27.53;;;13.80;;
5491;SDS011;2768;53.540;10.224;2023-01-26T08:18:48;32.70;;;14.93;;
5491;SDS011;2768;53.540;10.224;2023-01-26T08:24:42;29.30;;;14.70;;
5491;SDS011;2768;53.540;10.224;2023-01-26T08:30:36;28.93;;;14.17;;
5491;SDS011;2768;53.540;10.224;2023-01-26T08:36:29;29.47;;;13.40;;
5491;SDS011;2768;53.540;10.224;2023-01-26T08:42:23;24.60;;;12.30;;
5491;SDS011;2768;53.540;10.224;2023-01-26T08:48:18;26.73;;;14.23;;
5491;SDS011;2768;53.540;10.224;2023-01-26T08:54:12;32.17;;;16.83;;
5491;SDS011;2768;53.540;10.224;2023-01-26T09:00:06;32.00;;;13.50;;
5491;SDS011;2768;53.540;10.224;2023-01-26T09:06:03;29.00;;;13.73;;
5491;SDS011;2768;53.540;10.224;2023-01-26T09:11:57;28.40;;;14.60;;
5491;SDS011;2768;53.540;10.224;2023-01-26T09:17:50;30.80;;;14.63;;
5491;SDS011;2768;53.540;10.224;2023-01-26T09:23:45;26.50;;;13.87;;
5491;SDS011;2768;53.540;10.224;2023-01-26T09:29:38;28.20;;;13.40;;
5491;SDS011;2768;53.540;10.224;2023-01-26T09:35:32;27.00;;;13.10;;
5491;SDS011;2768;53.540;10.224;2023-01-26T09:41:36;28.20;;;14.27;;
5491;SDS011;2768;53.540;10.224;2023-01-26T09:47:42;23.40;;;13.10;;
5491;SDS011;2768;53.540;10.224;2023-01-26T09:53:47;24.80;;;12.43;;
5491;SDS011;2768;53.540;10.224;2023-01-26T09:59:47;26.07;;;14.20;;
5491;SDS011;2768;53.540;10.224;2023-01-26T10:05:46;25.97;;;13.60;;
5491;SDS011;2768;53.540;10.224;2023-01-26T10:12:03;29.07;;;13.63;;
5491;SDS011;2768;53.540;10.224;2023-01-26T10:18:02;35.63;;;15.07;;
5491;SDS011;2768;53.540;10.224;2023-01-26T10:23:59;29.40;;;13.57;;
5491;SDS011;2768;53.540;10.224;2023-01-26T10:29:54;28.37;;;14.47;;
5491;SDS011;2768;53.540;10.224;2023-01-26T10:35:49;28.43;;;13.60;;
5491;SDS011;2768;53.540;10.224;2023-01-26T10:41:54;29.97;;;14.43;;
5491;SDS011;2768;53.540;10.224;2023-01-26T10:48:00;30.10;;;16.07;;
5491;SDS011;2768;53.540;10.224;2023-01-26T11:00:25;30.87;;;13.97;;
5491;SDS011;2768;53.540;10.224;2023-01-26T11:06:20;29.80;;;14.33;;
5491;SDS011;2768;53.540;10.224;2023-01-26T11:12:24;32.93;;;16.57;;
5491;SDS011;2768;53.540;10.224;2023-01-26T11:18:22;35.40;;;16.43;;
5491;SDS011;2768;53.540;10.224;2023-01-26T11:24:28;33.03;;;15.00;;
5491;SDS011;2768;53.540;10.224;2023-01-26T11:36:54;30.60;;;14.40;;
5491;SDS011;2768;53.540;10.224;2023-01-26T11:43:16;34.60;;;13.67;;
5491;SDS011;2768;53.540;10.224;2023-01-26T11:49:23;36.23;;;14.60;;
5491;SDS011;2768;53.540;10.224;2023-01-26T11:55:35;33.27;;;14.60;;
5491;SDS011;2768;53.540;10.224;2023-01-26T12:01:38;37.70;;;15.43;;
5491;SDS011;2768;53.540;10.224;2023-01-26T12:07:39;38.03;;;16.40;;
5491;SDS011;2768;53.540;10.224;2023-01-26T12:13:45;36.50;;;15.67;;
5491;SDS011;2768;53.540;10.224;2023-01-26T12:19:42;32.80;;;15.53;;
5491;SDS011;2768;53.540;10.224;2023-01-26T12:25:45;31.23;;;14.27;;
5491;SDS011;2768;53.540;10.224;2023-01-26T12:31:44;35.50;;;15.33;;
5491;SDS011;2768;53.540;10.224;2023-01-26T12:37:43;32.40;;;14.47;;
5491;SDS011;2768;53.540;10.224;2023-01-26T12:43:50;31.33;;;13.13;;
5491;SDS011;2768;53.540;10.224;2023-01-26T12:49:52;28.67;;;12.47;;
5491;SDS011;2768;53.540;10.224;2023-01-26T12:55:52;23.50;;;12.67;;
5491;SDS011;2768;53.540;10.224;2023-01-26T13:01:50;25.47;;;11.23;;
5491;SDS011;2768;53.540;10.224;2023-01-26T13:07:44;23.33;;;11.03;;
5491;SDS011;2768;53.540;10.224;2023-01-26T13:13:51;27.90;;;11.57;;
5491;SDS011;2768;53.540;10.224;2023-01-26T13:19:53;29.63;;;10.80;;
5491;SDS011;2768;53.540;10.224;2023-01-26T13:26:05;25.20;;;11.30;;
5491;SDS011;2768;53.540;10.224;2023-01-26T13:38:46;22.10;;;10.30;;
5491;SDS011;2768;53.540;10.224;2023-01-26T13:44:48;18.47;;;9.50;;
5491;SDS011;2768;53.540;10.224;2023-01-26T13:50:46;21.13;;;8.30;;
5491;SDS011;2768;53.540;10.224;2023-01-26T13:56:58;17.43;;;8.60;;
5491;SDS011;2768;53.540;10.224;2023-01-26T14:02:52;16.67;;;7.90;;
5491;SDS011;2768;53.540;10.224;2023-01-26T14:08:48;19.00;;;8.50;;
5491;SDS011;2768;53.540;10.224;2023-01-26T14:14:45;19.63;;;9.97;;
5491;SDS011;2768;53.540;10.224;2023-01-26T14:20:41;14.07;;;8.10;;
5491;SDS011;2768;53.540;10.224;2023-01-26T14:26:34;20.13;;;8.70;;
5491;SDS011;2768;53.540;10.224;2023-01-26T14:32:29;15.20;;;8.63;;
5491;SDS011;2768;53.540;10.224;2023-01-26T14:38:23;24.10;;;11.50;;
5491;SDS011;2768;53.540;10.224;2023-01-26T14:44:19;18.00;;;9.87;;
5491;SDS011;2768;53.540;10.224;2023-01-26T14:50:15;19.23;;;9.43;;
5491;SDS011;2768;53.540;10.224;2023-01-26T14:56:17;19.53;;;8.47;;
5491;SDS011;2768;53.540;10.224;2023-01-26T15:02:13;17.33;;;8.87;;
5491;SDS011;2768;53.540;10.224;2023-01-26T15:08:18;17.40;;;8.53;;
5491;SDS011;2768;53.540;10.224;2023-01-26T15:14:29;13.10;;;6.37;;
5491;SDS011;2768;53.540;10.224;2023-01-26T15:20:37;16.53;;;8.07;;
5491;SDS011;2768;53.540;10.224;2023-01-26T15:26:33;14.83;;;7.63;;
5491;SDS011;2768;53.540;10.224;2023-01-26T15:32:29;16.03;;;7.53;;
5491;SDS011;2768;53.540;10.224;2023-01-26T15:38:24;15.53;;;8.00;;
5491;SDS011;2768;53.540;10.224;2023-01-26T15:44:19;14.00;;;8.27;;
5491;SDS011;2768;53.540;10.224;2023-01-26T15:50:13;18.40;;;10.23;;
5491;SDS011;2768;53.540;10.224;2023-01-26T15:56:18;17.00;;;9.40;;
5491;SDS011;2768;53.540;10.224;2023-01-26T16:02:14;14.47;;;7.70;;
5491;SDS011;2768;53.540;10.224;2023-01-26T16:08:08;17.40;;;9.33;;
5491;SDS011;2768;53.540;10.224;2023-01-26T16:14:02;17.80;;;8.50;;
5491;SDS011;2768;53.540;10.224;2023-01-26T16:19:57;16.83;;;9.40;;
5491;SDS011;2768;53.540;10.224;2023-01-26T16:25:51;19.17;;;10.57;;
5491;SDS011;2768;53.540;10.224;2023-01-26T16:31:44;22.50;;;10.40;;
5491;SDS011;2768;53.540;10.224;2023-01-26T16:37:39;20.10;;;11.40;;
5491;SDS011;2768;53.540;10.224;2023-01-26T16:43:33;24.23;;;11.50;;
5491;SDS011;2768;53.540;10.224;2023-01-26T16:49:26;25.50;;;14.60;;
5491;SDS011;2768;53.540;10.224;2023-01-26T16:55:21;29.03;;;14.63;;
5491;SDS011;2768;53.540;10.224;2023-01-26T17:01:16;30.63;;;14.53;;
5491;SDS011;2768;53.540;10.224;2023-01-26T17:07:11;35.50;;;15.50;;
5491;SDS011;2768;53.540;10.224;2023-01-26T17:13:06;37.20;;;17.63;;
5491;SDS011;2768;53.540;10.224;2023-01-26T17:18:59;34.87;;;16.83;;
5491;SDS011;2768;53.540;10.224;2023-01-26T17:24:52;36.73;;;17.07;;
5491;SDS011;2768;53.540;10.224;2023-01-26T17:30:47;34.97;;;14.27;;
5491;SDS011;2768;53.540;10.224;2023-01-26T17:36:40;33.47;;;16.27;;
5491;SDS011;2768;53.540;10.224;2023-01-26T17:42:36;33.37;;;13.93;;
5491;SDS011;2768;53.540;10.224;2023-01-26T17:48:31;33.00;;;15.23;;
5491;SDS011;2768;53.540;10.224;2023-01-26T17:54:25;31.10;;;13.63;;
5491;SDS011;2768;53.540;10.224;2023-01-26T18:00:19;32.40;;;12.97;;
5491;SDS011;2768;53.540;10.224;2023-01-26T18:06:14;29.20;;;12.63;;
5491;SDS011;2768;53.540;10.224;2023-01-26T18:12:07;28.13;;;13.63;;
5491;SDS011;2768;53.540;10.224;2023-01-26T18:18:01;35.30;;;16.10;;
5491;SDS011;2768;53.540;10.224;2023-01-26T18:23:57;27.67;;;14.43;;
5491;SDS011;2768;53.540;10.224;2023-01-26T18:29:52;30.07;;;15.23;;
5491;SDS011;2768;53.540;10.224;2023-01-26T18:35:45;25.30;;;14.37;;
5491;SDS011;2768;53.540;10.224;2023-01-26T18:41:40;28.57;;;16.47;;
5491;SDS011;2768;53.540;10.224;2023-01-26T18:47:34;33.70;;;14.30;;
5491;SDS011;2768;53.540;10.224;2023-01-26T18:53:27;31.50;;;15.47;;
5491;SDS011;2768;53.540;10.224;2023-01-26T18:59:23;28.20;;;13.80;;
5491;SDS011;2768;53.540;10.224;2023-01-26T19:05:16;22.63;;;11.30;;
5491;SDS011;2768;53.540;10.224;2023-01-26T19:11:09;22.30;;;11.80;;
5491;SDS011;2768;53.540;10.224;2023-01-26T19:17:04;21.00;;;11.70;;
5491;SDS011;2768;53.540;10.224;2023-01-26T19:22:57;23.90;;;13.00;;
5491;SDS011;2768;53.540;10.224;2023-01-26T19:28:52;30.57;;;11.60;;
5491;SDS011;2768;53.540;10.224;2023-01-26T19:34:48;18.30;;;10.10;;
5491;SDS011;2768;53.540;10.224;2023-01-26T19:40:42;21.53;;;10.00;;
5491;SDS011;2768;53.540;10.224;2023-01-26T19:46:36;15.87;;;10.50;;
5491;SDS011;2768;53.540;10.224;2023-01-26T19:52:31;18.63;;;10.37;;
5491;SDS011;2768;53.540;10.224;2023-01-26T19:58:24;19.70;;;10.30;;
5491;SDS011;2768;53.540;10.224;2023-01-26T20:04:18;20.60;;;10.03;;
5491;SDS011;2768;53.540;10.224;2023-01-26T20:10:13;19.53;;;9.10;;
5491;SDS011;2768;53.540;10.224;2023-01-26T20:16:07;18.60;;;10.40;;
5491;SDS011;2768;53.540;10.224;2023-01-26T20:22:02;15.77;;;9.73;;
5491;SDS011;2768;53.540;10.224;2023-01-26T20:27:57;22.07;;;10.37;;
5491;SDS011;2768;53.540;10.224;2023-01-26T20:33:51;18.43;;;11.50;;
5491;SDS011;2768;53.540;10.224;2023-01-26T20:39:45;18.60;;;10.17;;
5491;SDS011;2768;53.540;10.224;2023-01-26T20:45:40;14.50;;;10.50;;
5491;SDS011;2768;53.540;10.224;2023-01-26T20:51:34;15.53;;;9.80;;
5491;SDS011;2768;53.540;10.224;2023-01-26T20:57:28;15.13;;;10.43;;
5491;SDS011;2768;53.540;10.224;2023-01-26T21:03:23;17.63;;;11.30;;
5491;SDS011;2768;53.540;10.224;2023-01-26T21:09:17;18.60;;;13.50;;
5491;SDS011;2768;53.540;10.224;2023-01-26T21:15:11;16.90;;;10.03;;
5491;SDS011;2768;53.540;10.224;2023-01-26T21:21:07;16.03;;;11.10;;
5491;SDS011;2768;53.540;10.224;2023-01-26T21:27:03;18.37;;;10.43;;
5491;SDS011;2768;53.540;10.224;2023-01-26T21:32:57;11.87;;;8.30;;
5491;SDS011;2768;53.540;10.224;2023-01-26T21:38:53;12.73;;;7.87;;
5491;SDS011;2768;53.540;10.224;2023-01-26T21:44:47;12.77;;;7.87;;
5491;SDS011;2768;53.540;10.224;2023-01-26T21:50:58;9.40;;;7.00;;
5491;SDS011;2768;53.540;10.224;2023-01-26T21:57:08;11.73;;;7.83;;
5491;SDS011;2768;53.540;10.224;2023-01-26T22:03:16;12.37;;;7.30;;
5491;SDS011;2768;53.540;10.224;2023-01-26T22:09:10;10.63;;;8.10;;
5491;SDS011;2768;53.540;10.224;2023-01-26T22:15:07;8.30;;;6.30;;
5491;SDS011;2768;53.540;10.224;2023-01-26T22:21:01;8.40;;;6.10;;
5491;SDS011;2768;53.540;10.224;2023-01-26T22:26:55;9.57;;;6.00;;
5491;SDS011;2768;53.540;10.224;2023-01-26T22:32:50;6.50;;;5.57;;
5491;SDS011;2768;53.540;10.224;2023-01-26T22:38:44;7.20;;;4.33;;
5491;SDS011;2768;53.540;10.224;2023-01-26T22:44:37;7.17;;;4.23;;
5491;SDS011;2768;53.540;10.224;2023-01-26T22:50:32;5.70;;;4.00;;
5491;SDS011;2768;53.540;10.224;2023-01-26T22:56:26;5.90;;;4.20;;
5491;SDS011;2768;53.540;10.224;2023-01-26T23:02:19;4.53;;;3.90;;
5491;SDS011;2768;53.540;10.224;2023-01-26T23:08:13;4.00;;;3.33;;
5491;SDS011;2768;53.540;10.224;2023-01-26T23:14:07;4.97;;;2.93;;
5491;SDS011;2768;53.540;10.224;2023-01-26T23:20:00;5.13;;;4.00;;
5491;SDS011;2768;53.540;10.224;2023-01-26T23:25:55;4.67;;;3.00;;
5491;SDS011;2768;53.540;10.224;2023-01-26T23:31:49;3.40;;;3.10;;
5491;SDS011;2768;53.540;10.224;2023-01-26T23:37:43;2.80;;;2.60;;
5491;SDS011;2768;53.540;10.224;2023-01-26T23:43:38;3.90;;;2.60;;
5491;SDS011;2768;53.540;10.224;2023-01-26T23:49:32;2.50;;;2.30;;
5491;SDS011;2768;53.540;10.224;2023-01-26T23:55:25;2.60;;;2.40;;
